Time;durP1;ratioP1;P1;durP2;ratioP2;P2;SDS_P1;SDS_P2;PMS_P1;PMS_P2;Temp;Humidity;BMP_temperature;BMP_pressure;BME280_temperature;BME280_humidity;BME280_pressure;Samples;Min_cycle;Max_cycle;Signal;HPM_P1;HPM_P2
2022/03/01 00:02:25;;;;;;;39.97;16.05;;;-0.80;99.90;;;;;;4917922;29;20028;-84
2022/03/01 00:04:52;;;;;;;36.80;15.77;;;-0.80;99.90;;;;;;4949127;29;20524;-85
2022/03/01 00:07:18;;;;;;;27.38;13.73;;;-0.90;99.90;;;;;;4949655;29;20032;-84
2022/03/01 00:09:44;;;;;;;32.33;13.32;;;-1.00;99.90;;;;;;4950098;29;20036;-84
2022/03/01 00:12:10;;;;;;;33.90;14.25;;;-1.10;99.90;;;;;;4917820;29;20047;-86
2022/03/01 00:14:36;;;;;;;36.22;13.80;;;-1.10;99.90;;;;;;4949242;29;20032;-84
2022/03/01 00:17:02;;;;;;;34.70;15.18;;;-1.30;99.90;;;;;;4917611;29;20390;-82
2022/03/01 00:19:29;;;;;;;36.00;14.07;;;-1.30;99.90;;;;;;4949224;29;20043;-84
2022/03/01 00:21:56;;;;;;;37.55;15.23;;;-1.30;99.90;;;;;;4931936;29;20036;-83
2022/03/01 00:24:22;;;;;;;32.08;13.63;;;-1.30;99.90;;;;;;4916212;29;20032;-85
2022/03/01 00:26:47;;;;;;;35.40;14.48;;;-1.30;99.90;;;;;;4916992;29;20039;-83
2022/03/01 00:29:15;;;;;;;39.78;15.95;;;-1.40;99.90;;;;;;4917134;29;20425;-85
2022/03/01 00:31:41;;;;;;;34.33;14.52;;;-1.40;99.90;;;;;;4917623;29;20107;-87
2022/03/01 00:34:07;;;;;;;39.67;14.93;;;-1.50;99.90;;;;;;4917236;29;20036;-84
2022/03/01 00:36:33;;;;;;;36.72;14.50;;;-1.50;99.90;;;;;;4917944;29;20421;-86
2022/03/01 00:38:59;;;;;;;35.67;13.95;;;-1.50;99.90;;;;;;4920014;29;20088;-83
2022/03/01 00:41:24;;;;;;;37.75;15.38;;;-1.60;99.90;;;;;;4939741;29;20036;-85
2022/03/01 00:43:50;;;;;;;39.25;15.00;;;-1.60;99.90;;;;;;4917012;29;20541;-86
2022/03/01 00:46:17;;;;;;;36.35;14.35;;;-1.70;99.90;;;;;;4918051;29;20114;-82
2022/03/01 00:48:43;;;;;;;35.03;14.88;;;-1.70;99.90;;;;;;4916080;29;20132;-85
2022/03/01 00:51:09;;;;;;;37.55;14.88;;;-1.70;99.90;;;;;;4933301;29;20123;-86
2022/03/01 00:53:34;;;;;;;36.47;14.15;;;-1.80;99.90;;;;;;4932410;29;20096;-86
2022/03/01 00:56:04;;;;;;;38.60;15.32;;;-1.80;99.90;;;;;;4917266;29;20044;-85
2022/03/01 00:58:31;;;;;;;38.88;16.33;;;-1.80;99.90;;;;;;4932424;29;20043;-85
2022/03/01 01:00:57;;;;;;;40.97;15.63;;;-1.90;99.90;;;;;;4949113;29;20036;-85
2022/03/01 01:03:22;;;;;;;39.67;15.75;;;-1.90;99.90;;;;;;4916946;29;20032;-85
2022/03/01 01:05:48;;;;;;;34.08;14.20;;;-1.90;99.90;;;;;;4932490;29;20127;-84
2022/03/01 01:08:14;;;;;;;36.67;15.18;;;-1.90;99.90;;;;;;4916479;29;20063;-85
2022/03/01 01:10:40;;;;;;;32.72;15.27;;;-1.90;99.90;;;;;;4917052;29;20401;-87
2022/03/01 01:13:06;;;;;;;37.63;15.75;;;-1.90;99.90;;;;;;4917040;29;20119;-87
2022/03/01 01:15:32;;;;;;;44.50;16.40;;;-2.00;99.90;;;;;;4917199;29;20589;-85
2022/03/01 01:17:58;;;;;;;42.17;16.98;;;-2.00;99.90;;;;;;4917154;29;20040;-85
2022/03/01 01:20:24;;;;;;;47.42;16.20;;;-2.00;99.90;;;;;;4948751;29;20328;-85
2022/03/01 01:22:50;;;;;;;41.58;16.45;;;-2.00;99.90;;;;;;4922985;29;20036;-86
2022/03/01 01:25:22;;;;;;;37.13;15.30;;;-2.10;99.90;;;;;;4917670;29;20040;-86
2022/03/01 01:27:53;;;;;;;40.78;15.50;;;-2.20;99.90;;;;;;4949023;29;20040;-86
2022/03/01 01:30:21;;;;;;;;;;;-2.20;99.90;;;;;;4933785;29;20066;-88
2022/03/01 01:32:48;;;;;;;35.75;14.45;;;-2.30;99.90;;;;;;4917917;29;19911;-84
2022/03/01 01:35:15;;;;;;;34.83;14.18;;;-2.30;99.90;;;;;;4933299;29;20497;-84
2022/03/01 01:37:41;;;;;;;37.42;14.82;;;-2.30;99.90;;;;;;4935027;29;20040;-85
2022/03/01 01:40:09;;;;;;;42.22;15.93;;;-2.30;99.90;;;;;;4936330;29;20028;-84
2022/03/01 01:42:35;;;;;;;40.50;16.40;;;-2.40;99.90;;;;;;4969340;28;20035;-84
2022/03/01 01:45:02;;;;;;;36.63;16.15;;;-2.40;99.90;;;;;;4952586;28;20051;-84
2022/03/01 01:47:28;;;;;;;40.25;15.40;;;-2.40;99.90;;;;;;4920579;29;20083;-86
2022/03/01 01:49:53;;;;;;;38.53;14.77;;;-2.50;99.90;;;;;;4934153;29;20040;-86
2022/03/01 01:52:19;;;;;;;34.33;15.27;;;-2.50;99.90;;;;;;4918554;29;20047;-85
2022/03/01 01:54:45;;;;;;;43.38;15.95;;;-2.50;99.90;;;;;;4917664;29;20068;-85
2022/03/01 01:57:16;;;;;;;38.70;15.93;;;-2.60;99.90;;;;;;4933586;29;20032;-85
2022/03/01 01:59:42;;;;;;;34.67;14.88;;;-2.60;99.90;;;;;;4931114;29;20143;-84
2022/03/01 02:02:13;;;;;;;33.85;14.52;;;-2.70;99.90;;;;;;4918251;29;20043;-86
2022/03/01 02:04:40;;;;;;;36.42;15.00;;;-2.80;99.90;;;;;;4933746;29;20032;-86
2022/03/01 02:07:06;;;;;;;40.15;16.42;;;-2.90;99.90;;;;;;4933665;29;20036;-86
2022/03/01 02:09:32;;;;;;;36.63;15.57;;;-2.90;99.90;;;;;;4934441;29;20036;-86
2022/03/01 02:11:57;;;;;;;38.85;15.88;;;-3.00;99.90;;;;;;4944053;28;20051;-84
2022/03/01 02:14:23;;;;;;;41.63;16.67;;;-3.10;99.90;;;;;;4938479;29;20100;-86
2022/03/01 02:16:49;;;;;;;41.22;16.55;;;-3.20;99.90;;;;;;4944417;28;20451;-86
2022/03/01 02:19:15;;;;;;;37.95;16.45;;;-3.30;99.90;;;;;;4918334;29;20032;-85
2022/03/01 02:21:57;;;;;;;42.85;16.02;;;-3.30;99.90;;;;;;4920064;29;20121;-84
2022/03/01 02:24:27;;;;;;;41.83;15.70;;;-3.40;99.90;;;;;;4942812;28;20092;-87
2022/03/01 02:27:05;;;;;;;39.67;16.05;;;-3.50;99.90;;;;;;4951338;29;20035;-85
2022/03/01 02:29:31;;;;;;;40.78;16.67;;;-3.60;99.90;;;;;;4935264;29;20040;-84
2022/03/01 02:32:01;;;;;;;39.10;15.05;;;-3.60;99.90;;;;;;4917437;29;20043;-86
2022/03/01 02:34:27;;;;;;;42.63;15.93;;;-3.60;99.90;;;;;;4932815;29;20729;-86
2022/03/01 02:36:53;;;;;;;39.30;16.38;;;-3.50;99.90;;;;;;4917873;29;20040;-86
2022/03/01 02:39:18;;;;;;;44.13;16.33;;;-3.50;99.90;;;;;;4931992;29;20036;-85
2022/03/01 02:41:46;;;;;;;37.47;15.45;;;-3.40;99.90;;;;;;4915670;29;20104;-85
2022/03/01 02:44:12;;;;;;;39.58;16.52;;;-3.40;99.90;;;;;;4930902;29;20028;-86
2022/03/01 02:46:39;;;;;;;37.22;15.35;;;-3.40;99.90;;;;;;4932682;29;20032;-87
2022/03/01 02:49:06;;;;;;;41.67;17.65;;;-3.40;99.90;;;;;;4931665;29;20108;-88
2022/03/01 02:51:32;;;;;;;39.08;16.10;;;-3.50;99.90;;;;;;4930778;29;20040;-84
2022/03/01 02:53:58;;;;;;;41.70;15.57;;;-3.40;99.90;;;;;;4915831;29;20032;-87
2022/03/01 02:56:24;;;;;;;41.10;16.67;;;-3.40;99.90;;;;;;4931132;29;20042;-85
2022/03/01 02:58:50;;;;;;;35.35;15.85;;;-3.40;99.90;;;;;;4931937;29;20040;-84
2022/03/01 03:01:16;;;;;;;39.85;15.95;;;-3.40;99.90;;;;;;4915842;29;20086;-88
2022/03/01 03:03:42;;;;;;;43.05;16.75;;;-3.30;99.90;;;;;;4931645;29;20029;-87
2022/03/01 03:06:08;;;;;;;43.05;17.20;;;-3.40;99.90;;;;;;4932013;29;20043;-88
2022/03/01 03:08:34;;;;;;;40.42;16.77;;;-3.50;99.90;;;;;;4900063;29;20029;-86
2022/03/01 03:10:59;;;;;;;44.60;17.80;;;-3.50;99.90;;;;;;4913662;29;20036;-87
2022/03/01 03:13:26;;;;;;;48.20;18.70;;;-3.60;99.90;;;;;;4915224;29;20083;-86
2022/03/01 03:15:53;;;;;;;44.25;17.73;;;-3.60;99.90;;;;;;4915870;29;20524;-87
2022/03/01 03:18:19;;;;;;;41.90;17.90;;;-3.70;99.90;;;;;;4947243;29;20028;-85
2022/03/01 03:20:45;;;;;;;44.60;18.75;;;-3.70;99.90;;;;;;4914402;29;20071;-86
2022/03/01 03:23:11;;;;;;;44.97;20.30;;;-3.70;99.90;;;;;;4916113;29;20043;-86
2022/03/01 03:25:36;;;;;;;46.00;18.80;;;-3.70;99.90;;;;;;4947400;29;20094;-86
2022/03/01 03:28:03;;;;;;;40.83;17.00;;;-3.80;99.90;;;;;;4915108;29;20077;-87
2022/03/01 03:30:28;;;;;;;45.58;20.38;;;-3.70;99.90;;;;;;4931410;29;20130;-86
2022/03/01 03:32:54;;;;;;;39.20;18.15;;;-3.70;99.90;;;;;;4915027;29;20189;-88
2022/03/01 03:35:20;;;;;;;52.72;20.73;;;-3.70;99.90;;;;;;4915120;29;20055;-86
2022/03/01 03:37:46;;;;;;;43.13;18.40;;;-3.70;99.90;;;;;;4900234;29;20068;-85
2022/03/01 03:40:12;;;;;;;59.90;22.65;;;-3.70;99.90;;;;;;4913472;29;20115;-86
2022/03/01 03:42:38;;;;;;;53.20;19.92;;;-3.60;99.90;;;;;;4945952;29;20043;-86
2022/03/01 03:45:05;;;;;;;51.08;18.83;;;-3.60;99.90;;;;;;4930326;29;20111;-86
2022/03/01 03:47:31;;;;;;;51.42;17.77;;;-3.60;99.90;;;;;;4930240;29;20040;-85
2022/03/01 03:49:57;;;;;;;45.83;17.83;;;-3.50;99.90;;;;;;4945507;29;20028;-85
2022/03/01 03:52:23;;;;;;;43.20;18.13;;;-3.50;99.90;;;;;;4914495;29;20032;-86
2022/03/01 03:54:50;;;;;;;41.08;17.63;;;-3.50;99.90;;;;;;4913752;29;20060;-85
2022/03/01 03:57:16;;;;;;;45.67;16.98;;;-3.50;99.90;;;;;;4929734;29;20054;-85
2022/03/01 03:59:42;;;;;;;39.08;16.85;;;-3.50;99.90;;;;;;4934510;29;20032;-85
2022/03/01 04:02:08;;;;;;;40.72;15.75;;;-3.50;99.90;;;;;;4916675;29;20143;-84
2022/03/01 04:04:36;;;;;;;36.33;15.38;;;-3.50;99.90;;;;;;4930650;29;20083;-85
2022/03/01 04:07:03;;;;;;;34.50;15.95;;;-3.60;99.90;;;;;;4915098;29;20127;-82
2022/03/01 04:09:29;;;;;;;37.40;16.08;;;-3.50;99.90;;;;;;4930407;29;20048;-85
2022/03/01 04:11:55;;;;;;;44.60;16.63;;;-3.50;99.90;;;;;;4921252;29;20103;-84
2022/03/01 04:14:21;;;;;;;36.58;16.10;;;-3.50;99.90;;;;;;4914412;29;20622;-84
2022/03/01 04:16:47;;;;;;;37.53;15.27;;;-3.50;99.90;;;;;;4929972;29;20135;-85
2022/03/01 04:19:13;;;;;;;35.78;15.40;;;-3.50;99.90;;;;;;4928988;29;20028;-85
2022/03/01 04:21:39;;;;;;;37.38;15.82;;;-3.60;99.90;;;;;;4914213;29;20087;-85
2022/03/01 04:24:06;;;;;;;41.75;16.33;;;-3.60;99.90;;;;;;4916121;29;20060;-85
2022/03/01 04:26:34;;;;;;;40.15;15.40;;;-3.60;99.90;;;;;;4933152;29;20047;-84
2022/03/01 04:28:59;;;;;;;40.95;16.63;;;-3.50;99.90;;;;;;4932479;29;20159;-85
2022/03/01 04:31:25;;;;;;;37.50;16.30;;;-3.50;99.90;;;;;;4916560;29;20237;-83
2022/03/01 04:33:54;;;;;;;43.15;16.15;;;-3.50;99.90;;;;;;4916239;29;20031;-84
2022/03/01 04:36:20;;;;;;;40.85;16.58;;;-3.60;99.90;;;;;;4932354;29;20056;-84
2022/03/01 04:38:47;;;;;;;41.80;16.15;;;-3.60;99.90;;;;;;4916265;29;20050;-85
2022/03/01 04:41:13;;;;;;;41.97;16.80;;;-3.70;99.90;;;;;;4947848;29;20039;-84
2022/03/01 04:43:39;;;;;;;41.05;16.63;;;-3.70;99.90;;;;;;4916979;29;20040;-84
2022/03/01 04:46:05;;;;;;;43.60;16.95;;;-3.70;99.90;;;;;;4916021;29;20040;-85
2022/03/01 04:48:31;;;;;;;34.55;15.88;;;-3.70;99.90;;;;;;4932095;29;20032;-84
2022/03/01 04:50:57;;;;;;;37.88;15.65;;;-3.70;99.90;;;;;;4917681;29;20039;-85
2022/03/01 04:53:23;;;;;;;43.67;18.63;;;-3.60;99.90;;;;;;4933733;29;20036;-85
2022/03/01 04:55:49;;;;;;;44.85;15.50;;;-3.60;99.90;;;;;;4917535;29;20092;-84
2022/03/01 04:58:15;;;;;;;38.70;16.27;;;-3.60;99.90;;;;;;4917895;29;20032;-84
2022/03/01 05:00:41;;;;;;;40.00;16.70;;;-3.50;99.90;;;;;;4917131;29;20043;-84
2022/03/01 05:03:07;;;;;;;40.38;15.40;;;-3.40;99.90;;;;;;4924466;29;20374;-84
2022/03/01 05:05:32;;;;;;;40.72;15.70;;;-3.40;99.90;;;;;;4921623;29;20086;-85
2022/03/01 05:07:58;;;;;;;40.25;16.63;;;-3.40;99.90;;;;;;4929724;29;20113;-86
2022/03/01 05:10:24;;;;;;;39.85;16.63;;;-3.30;99.90;;;;;;4939531;29;20027;-84
2022/03/01 05:12:59;;;;;;;35.75;14.88;;;-3.30;99.90;;;;;;4939268;29;20495;-85
2022/03/01 05:15:27;;;;;;;38.55;15.55;;;-3.30;99.90;;;;;;4931301;29;20103;-84
2022/03/01 05:17:54;;;;;;;41.63;17.30;;;-3.30;99.90;;;;;;4915316;29;20028;-84
2022/03/01 05:20:21;;;;;;;34.92;15.57;;;-3.30;99.90;;;;;;4931115;29;20047;-84
2022/03/01 05:22:49;;;;;;;43.42;15.88;;;-3.30;99.90;;;;;;4931410;29;20036;-84
2022/03/01 05:25:17;;;;;;;39.40;15.15;;;-3.30;99.90;;;;;;4931194;29;20477;-84
2022/03/01 05:27:45;;;;;;;39.60;14.95;;;-3.30;99.90;;;;;;4946552;29;20076;-84
2022/03/01 05:30:14;;;;;;;38.35;14.52;;;-3.40;99.90;;;;;;4947720;29;20431;-85
2022/03/01 05:32:43;;;;;;;35.08;15.15;;;-3.40;99.90;;;;;;4931561;29;20040;-85
2022/03/01 05:35:10;;;;;;;33.40;14.18;;;-3.40;99.90;;;;;;4946988;28;20043;-85
2022/03/01 05:37:37;;;;;;;36.75;14.80;;;-3.40;99.90;;;;;;4932252;29;20043;-85
2022/03/01 05:40:04;;;;;;;39.83;16.02;;;-3.50;99.90;;;;;;4948364;29;20028;-85
2022/03/01 05:42:30;;;;;;;30.38;15.07;;;-3.50;99.90;;;;;;4941693;29;20040;-84
2022/03/01 05:44:56;;;;;;;29.00;14.23;;;-3.50;99.90;;;;;;4934751;29;20032;-84
2022/03/01 05:47:22;;;;;;;42.65;15.73;;;-3.50;99.90;;;;;;4948418;29;20112;-85
2022/03/01 05:49:48;;;;;;;36.42;15.88;;;-3.60;99.90;;;;;;4919766;29;20028;-84
2022/03/01 05:52:14;;;;;;;31.73;14.60;;;-3.60;99.90;;;;;;4915179;29;20047;-84
2022/03/01 05:54:40;;;;;;;37.58;14.57;;;-3.70;99.90;;;;;;4915431;29;20130;-85
2022/03/01 05:57:06;;;;;;;32.35;13.85;;;-3.70;99.90;;;;;;4915013;29;20036;-85
2022/03/01 05:59:31;;;;;;;33.20;15.45;;;-3.70;99.90;;;;;;4915210;29;20051;-84
2022/03/01 06:01:57;;;;;;;38.85;15.27;;;-3.70;99.90;;;;;;4915619;29;20496;-85
2022/03/01 06:04:23;;;;;;;32.92;14.00;;;-3.80;99.90;;;;;;4930854;29;20088;-85
2022/03/01 06:06:49;;;;;;;43.40;16.67;;;-3.70;99.90;;;;;;4915392;29;20044;-85
2022/03/01 06:09:14;;;;;;;38.08;14.43;;;-3.70;99.90;;;;;;4907779;29;20036;-85
2022/03/01 06:11:40;;;;;;;43.95;15.90;;;-3.70;99.90;;;;;;4929763;29;20031;-84
2022/03/01 06:14:06;;;;;;;38.78;15.35;;;-3.60;99.90;;;;;;4931244;29;20620;-85
2022/03/01 06:16:32;;;;;;;36.13;14.02;;;-3.60;99.90;;;;;;4915918;29;20477;-84
2022/03/01 06:18:58;;;;;;;40.28;14.30;;;-3.60;99.90;;;;;;4930482;29;20032;-84
2022/03/01 06:21:24;;;;;;;31.08;14.43;;;-3.50;99.90;;;;;;4946695;29;20067;-85
2022/03/01 06:23:50;;;;;;;33.47;14.05;;;-3.70;99.90;;;;;;4930414;29;20036;-84
2022/03/01 06:26:16;;;;;;;37.50;16.20;;;-3.70;99.90;;;;;;4914510;29;20433;-85
2022/03/01 06:28:42;;;;;;;46.95;19.05;;;-3.70;99.90;;;;;;4914652;29;20040;-85
2022/03/01 06:31:08;;;;;;;41.65;17.40;;;-3.60;99.90;;;;;;4930480;29;20040;-85
2022/03/01 06:33:33;;;;;;;38.58;14.45;;;-3.60;99.90;;;;;;4930738;29;20052;-86
2022/03/01 06:36:00;;;;;;;40.67;15.40;;;-3.60;99.90;;;;;;4946340;29;20040;-86
2022/03/01 06:38:26;;;;;;;33.65;14.18;;;-3.50;99.90;;;;;;4930352;29;20039;-85
2022/03/01 06:40:56;;;;;;;33.88;15.70;;;-3.40;99.90;;;;;;4931373;29;20482;-86
2022/03/01 06:43:24;;;;;;;31.80;14.38;;;-3.30;99.90;;;;;;4932572;29;20058;-85
2022/03/01 06:45:49;;;;;;;31.50;14.38;;;-3.30;99.90;;;;;;4933118;29;20071;-85
2022/03/01 06:48:16;;;;;;;35.33;13.50;;;-3.30;99.90;;;;;;4931890;29;20474;-85
2022/03/01 06:50:41;;;;;;;33.35;14.25;;;-3.30;99.90;;;;;;4931144;29;20119;-85
2022/03/01 06:53:07;;;;;;;35.72;14.70;;;-3.10;99.90;;;;;;4935442;29;20093;-84
2022/03/01 06:55:33;;;;;;;34.35;13.75;;;-3.10;99.90;;;;;;4927695;29;20036;-86
2022/03/01 06:57:59;;;;;;;32.90;13.20;;;-3.10;99.90;;;;;;4932826;29;20383;-84
2022/03/01 07:00:27;;;;;;;33.10;13.27;;;-3.00;99.90;;;;;;4948497;29;20032;-84
2022/03/01 07:02:53;;;;;;;30.55;12.90;;;-2.90;99.90;;;;;;4950056;29;20051;-84
2022/03/01 07:05:19;;;;;;;31.88;14.13;;;-2.80;99.90;;;;;;4920897;29;20146;-83
2022/03/01 07:07:46;;;;;;;27.98;13.32;;;-2.80;99.90;;;;;;4941073;29;20056;-83
2022/03/01 07:10:13;;;;;;;27.77;14.07;;;-2.70;99.90;;;;;;4947854;29;20083;-83
2022/03/01 07:12:43;;;;;;;29.38;14.13;;;-2.70;99.90;;;;;;4948277;29;20040;-84
2022/03/01 07:15:10;;;;;;;28.65;12.45;;;-2.60;99.90;;;;;;4947453;29;20091;-84
2022/03/01 07:17:35;;;;;;;32.67;13.45;;;-2.60;99.90;;;;;;4946304;29;20032;-85
2022/03/01 07:20:03;;;;;;;32.58;14.23;;;-2.50;99.90;;;;;;4929928;29;20032;-84
2022/03/01 07:22:32;;;;;;;29.42;12.77;;;-2.40;99.90;;;;;;4941368;29;20039;-85
2022/03/01 07:24:58;;;;;;;38.63;13.63;;;-2.30;99.90;;;;;;4930232;29;20040;-84
2022/03/01 07:27:24;;;;;;;32.97;13.35;;;-2.30;99.90;;;;;;4923732;29;20036;-85
2022/03/01 07:29:50;;;;;;;31.35;13.00;;;-2.20;99.90;;;;;;4910060;29;20092;-84
2022/03/01 07:32:15;;;;;;;25.00;12.48;;;-2.10;99.90;;;;;;4912450;29;20040;-84
2022/03/01 07:38:29;;;;;;;27.30;12.43;;;-1.90;99.90;;;;;;4909683;29;20070;-85
2022/03/01 07:41:02;;;;;;;30.45;12.38;;;-1.90;99.90;;;;;;4944708;29;20036;-84
2022/03/01 07:43:28;;;;;;;30.33;12.90;;;-1.80;99.90;;;;;;4908055;29;20119;-84
2022/03/01 07:45:54;;;;;;;25.67;12.80;;;-1.80;99.90;;;;;;4893714;29;20637;-83
2022/03/01 07:48:20;;;;;;;32.57;13.10;;;-1.70;99.90;;;;;;4913393;29;20068;-84
2022/03/01 07:50:47;;;;;;;31.25;14.38;;;-1.70;99.90;;;;;;4913869;29;20036;-86
2022/03/01 07:53:13;;;;;;;34.33;13.85;;;-1.70;99.90;;;;;;4913337;29;20035;-84
2022/03/01 07:55:39;;;;;;;30.48;14.10;;;-1.70;99.90;;;;;;4913423;29;20044;-84
2022/03/01 07:58:04;;;;;;;28.85;13.50;;;-1.60;99.90;;;;;;4899075;29;20028;-84
2022/03/01 08:00:30;;;;;;;28.58;13.00;;;-1.50;99.90;;;;;;4917216;29;20047;-86
2022/03/01 08:02:56;;;;;;;26.73;12.13;;;-1.50;99.90;;;;;;4916293;29;20040;-84
2022/03/01 08:05:22;;;;;;;25.05;12.30;;;-1.40;99.90;;;;;;4918680;29;19917;-84
2022/03/01 08:07:49;;;;;;;28.58;12.68;;;-1.40;99.90;;;;;;4913064;29;20037;-83
2022/03/01 08:10:15;;;;;;;26.90;12.45;;;-1.20;99.90;;;;;;4918336;29;20039;-85
2022/03/01 08:12:40;;;;;;;24.60;11.88;;;-1.20;99.90;;;;;;4945543;29;20174;-84
2022/03/01 08:15:07;;;;;;;27.48;12.05;;;-1.20;99.90;;;;;;4947888;29;20548;-85
2022/03/01 08:17:33;;;;;;;27.42;13.18;;;-1.10;99.90;;;;;;4916507;29;20055;-86
2022/03/01 08:19:59;;;;;;;25.08;12.02;;;-1.00;99.90;;;;;;4916945;29;20141;-82
2022/03/01 08:22:25;;;;;;;32.08;14.02;;;-1.00;99.90;;;;;;4917165;29;20036;-85
2022/03/01 08:24:50;;;;;;;29.83;12.85;;;-0.90;99.90;;;;;;4916942;29;20035;-83
2022/03/01 08:27:17;;;;;;;36.25;15.05;;;-0.80;99.90;;;;;;4948755;28;20556;-84
2022/03/01 08:29:43;;;;;;;35.38;13.43;;;-0.80;99.90;;;;;;4947265;29;20032;-87
2022/03/01 08:32:09;;;;;;;22.30;10.97;;;-0.70;99.90;;;;;;4914991;29;20043;-84
2022/03/01 08:34:34;;;;;;;25.00;12.10;;;-0.70;99.90;;;;;;4932575;29;19911;-84
2022/03/01 08:37:00;;;;;;;21.70;11.50;;;-0.60;99.90;;;;;;4932763;29;20073;-83
2022/03/01 08:39:26;;;;;;;22.85;10.60;;;-0.60;99.90;;;;;;4933460;29;20390;-85
2022/03/01 08:41:54;;;;;;;23.70;11.30;;;-0.60;99.90;;;;;;4938491;29;20348;-85
2022/03/01 08:44:21;;;;;;;25.10;12.00;;;-0.60;99.90;;;;;;4934475;29;20340;-82
2022/03/01 08:46:46;;;;;;;24.60;12.50;;;-0.60;99.90;;;;;;4945215;29;20209;-81
2022/03/01 08:49:12;;;;;;;25.30;12.10;;;-0.60;99.90;;;;;;4918806;29;20025;-85
2022/03/01 08:51:38;;;;;;;26.40;11.10;;;-0.40;99.90;;;;;;4916781;29;20041;-84
2022/03/01 08:54:03;;;;;;;24.85;10.25;;;-0.40;99.90;;;;;;4916251;29;20145;-84
2022/03/01 08:56:29;;;;;;;27.65;10.75;;;-0.30;99.90;;;;;;4915599;29;20087;-83
2022/03/01 08:58:55;;;;;;;21.10;10.40;;;-0.30;99.90;;;;;;4914833;29;20055;-85
2022/03/01 09:01:21;;;;;;;23.95;10.85;;;-0.20;99.90;;;;;;4947750;29;20519;-84
2022/03/01 09:03:47;;;;;;;23.40;9.95;;;-0.10;99.90;;;;;;4931859;29;20087;-85
2022/03/01 09:06:16;;;;;;;23.70;11.20;;;-0.10;99.90;;;;;;4916315;29;20066;-84
2022/03/01 09:08:41;;;;;;;;;;;-0.10;99.90;;;;;;4947997;29;20078;-86
2022/03/01 09:11:09;;;;;;;24.60;10.60;;;0.10;99.90;;;;;;4916509;29;20029;-84
2022/03/01 09:13:35;;;;;;;23.50;10.60;;;0.20;99.90;;;;;;4947982;29;20453;-85
2022/03/01 09:16:00;;;;;;;;;;;0.20;99.90;;;;;;4931752;29;20060;-85
2022/03/01 09:18:26;;;;;;;22.50;10.40;;;0.30;99.90;;;;;;4921978;29;20056;-84
2022/03/01 09:20:52;;;;;;;23.35;11.70;;;0.40;99.90;;;;;;4934232;29;20068;-83
2022/03/01 09:23:17;;;;;;;;;;;0.60;99.90;;;;;;4931542;29;19962;-83
2022/03/01 09:25:44;;;;;;;27.00;11.30;;;0.70;99.90;;;;;;4915837;29;20505;-85
2022/03/01 09:28:10;;;;;;;;;;;0.70;99.90;;;;;;4932233;29;20285;-84
2022/03/01 09:30:36;;;;;;;21.90;11.30;;;0.80;99.90;;;;;;4915944;29;20060;-84
2022/03/01 09:33:02;;;;;;;;;;;0.90;99.90;;;;;;4932760;29;20143;-85
2022/03/01 09:35:28;;;;;;;;;;;1.00;99.90;;;;;;4917356;29;20057;-85
2022/03/01 09:37:53;;;;;;;;;;;1.30;99.90;;;;;;4916872;29;20052;-86
2022/03/01 09:40:19;;;;;;;;;;;1.90;99.90;;;;;;4917030;29;20052;-84
2022/03/01 09:42:44;;;;;;;;;;;2.70;99.90;;;;;;4917201;29;20135;-88
2022/03/01 09:45:11;;;;;;;;;;;3.40;99.90;;;;;;4918200;29;20501;-85
2022/03/01 09:47:37;;;;;;;;;;;4.20;99.90;;;;;;4923341;29;20044;-84
2022/03/01 09:50:04;;;;;;;;;;;4.80;99.90;;;;;;4945495;29;20060;-82
2022/03/01 09:52:30;;;;;;;21.80;10.90;;;4.90;98.30;;;;;;4930444;29;20194;-86
2022/03/01 09:54:56;;;;;;;;;;;4.80;98.40;;;;;;4937996;29;20173;-84
2022/03/01 09:57:22;;;;;;;;;;;5.20;97.40;;;;;;4914933;29;20048;-84
2022/03/01 09:59:48;;;;;;;;;;;5.10;95.00;;;;;;4918468;29;20040;-84
2022/03/01 10:02:14;;;;;;;20.10;10.00;;;5.30;94.40;;;;;;4916392;29;20068;-83
2022/03/01 10:04:49;;;;;;;;;;;5.70;93.30;;;;;;4919607;29;20072;-83
2022/03/01 10:07:20;;;;;;;;;;;5.60;92.30;;;;;;4946736;29;20258;-84
2022/03/01 10:09:45;;;;;;;;;;;4.90;92.20;;;;;;4916210;29;20504;-86
2022/03/01 10:12:11;;;;;;;;;;;4.90;93.30;;;;;;4915677;29;20497;-82
2022/03/01 10:14:38;;;;;;;;;;;4.90;92.80;;;;;;4916090;29;20040;-84
2022/03/01 10:17:11;;;;;;;;;;;5.20;93.50;;;;;;4915363;29;20072;-84
2022/03/01 10:19:37;;;;;;;;;;;5.70;91.20;;;;;;4948618;29;20052;-82
2022/03/01 10:22:03;;;;;;;;;;;6.50;90.40;;;;;;4916820;29;20100;-85
2022/03/01 10:24:31;;;;;;;;;;;6.30;85.70;;;;;;4916403;29;20045;-84
2022/03/01 10:27:01;;;;;;;16.30;8.60;;;6.50;83.30;;;;;;4948286;29;20072;-84
2022/03/01 10:29:28;;;;;;;27.10;9.50;;;6.70;83.00;;;;;;4916543;29;20060;-84
2022/03/01 10:32:09;;;;;;;20.20;10.00;;;7.10;80.60;;;;;;4915957;29;20075;-84
2022/03/01 10:34:35;;;;;;;18.25;9.35;;;7.10;79.70;;;;;;4947925;29;20098;-83
2022/03/01 10:37:02;;;;;;;16.70;9.40;;;7.50;80.10;;;;;;4925619;29;20048;-85
2022/03/01 10:39:30;;;;;;;;;;;7.60;75.10;;;;;;4919360;29;20495;-81
2022/03/01 10:41:56;;;;;;;;;;;7.20;72.70;;;;;;4927443;29;20135;-84
2022/03/01 10:44:27;;;;;;;;;;;6.50;71.80;;;;;;4926232;29;20473;-83
2022/03/01 10:46:57;;;;;;;;;;;6.70;71.80;;;;;;4954039;29;20080;-84
2022/03/01 10:49:28;;;;;;;15.30;8.70;;;6.80;71.90;;;;;;4926902;29;20052;-83
2022/03/01 10:51:55;;;;;;;;;;;7.50;72.20;;;;;;4957807;29;20051;-83
2022/03/01 10:54:33;;;;;;;;;;;7.60;68.30;;;;;;4942075;29;20049;-85
2022/03/01 10:56:59;;;;;;;;;;;6.80;70.90;;;;;;4928266;29;20524;-84
2022/03/01 10:59:28;;;;;;;17.30;8.50;;;6.70;70.10;;;;;;4928911;29;20049;-85
2022/03/01 11:01:54;;;;;;;;;;;6.70;72.20;;;;;;4944823;29;20076;-85
2022/03/01 11:04:21;;;;;;;;;;;7.10;71.00;;;;;;4933907;29;20059;-84
2022/03/01 11:06:48;;;;;;;16.70;9.20;;;7.20;67.80;;;;;;4920046;29;20033;-83
2022/03/01 11:09:15;;;;;;;14.20;8.60;;;7.40;65.90;;;;;;4942894;29;20100;-83
2022/03/01 11:11:41;;;;;;;;;;;6.90;67.40;;;;;;4944462;29;20052;-84
2022/03/01 11:14:08;;;;;;;;;;;7.30;67.60;;;;;;4908948;29;20036;-84
2022/03/01 11:16:40;;;;;;;;;;;7.00;68.30;;;;;;4925488;29;20501;-84
2022/03/01 11:19:06;;;;;;;;;;;7.00;68.20;;;;;;4928782;29;20108;-84
2022/03/01 11:21:34;;;;;;;;;;;7.10;68.60;;;;;;4928740;29;20497;-84
2022/03/01 11:24:00;;;;;;;;;;;7.40;68.40;;;;;;4928554;29;21029;-84
2022/03/01 11:26:33;;;;;;;;;;;7.40;66.60;;;;;;4912899;29;20084;-84
2022/03/01 11:28:59;;;;;;;;;;;6.90;65.10;;;;;;4927914;29;20712;-84
2022/03/01 11:31:25;;;;;;;;;;;6.90;65.80;;;;;;4927916;29;20036;-84
2022/03/01 11:33:54;;;;;;;;;;;7.00;64.60;;;;;;4901427;29;20068;-84
2022/03/01 11:36:21;;;;;;;;;;;7.60;64.40;;;;;;4915178;29;20064;-84
2022/03/01 11:38:47;;;;;;;;;;;7.80;62.10;;;;;;4929506;29;20041;-85
2022/03/01 11:41:16;;;;;;;;;;;7.90;61.90;;;;;;4914523;29;20292;-84
2022/03/01 11:43:41;;;;;;;;;;;7.70;63.40;;;;;;4915318;29;20091;-85
2022/03/01 11:46:14;;;;;;;;;;;8.10;62.80;;;;;;4931480;29;20072;-84
2022/03/01 11:48:45;;;;;;;;;;;8.40;61.60;;;;;;4916551;29;20120;-84
2022/03/01 11:51:11;;;;;;;14.60;7.80;;;8.80;59.50;;;;;;4916152;29;20423;-85
2022/03/01 11:53:40;;;;;;;16.38;8.98;;;9.10;59.50;;;;;;4915883;29;20078;-85
2022/03/01 11:56:07;;;;;;;12.90;8.10;;;9.50;58.80;;;;;;4946668;29;19918;-84
2022/03/01 11:58:36;;;;;;;14.20;8.30;;;9.60;56.60;;;;;;4949467;29;19938;-86
2022/03/01 12:01:06;;;;;;;17.10;8.20;;;9.00;58.40;;;;;;4917850;29;20048;-83
2022/03/01 12:03:33;;;;;;;;;;;8.70;58.10;;;;;;4931786;29;20055;-84
2022/03/01 12:06:01;;;;;;;;;;;8.20;58.10;;;;;;4932918;29;20076;-81
2022/03/01 12:08:28;;;;;;;;;;;8.10;58.60;;;;;;4918918;29;20052;-85
2022/03/01 12:10:56;;;;;;;;;;;7.90;59.70;;;;;;4916235;29;20331;-85
2022/03/01 12:13:39;;;;;;;;;;;8.20;60.60;;;;;;4916507;29;20041;-86
2022/03/01 12:16:06;;;;;;;;;;;8.50;59.30;;;;;;4915361;29;20071;-85
2022/03/01 12:18:33;;;;;;;;;;;8.50;61.20;;;;;;4931818;29;20390;-84
2022/03/01 12:21:04;;;;;;;;;;;8.80;60.20;;;;;;4915903;29;20040;-84
2022/03/01 12:23:30;;;;;;;;;;;8.90;60.90;;;;;;4931298;29;20647;-84
2022/03/01 12:25:58;;;;;;;;;;;9.00;60.20;;;;;;4931341;29;20070;-86
2022/03/01 12:28:24;;;;;;;;;;;9.00;61.40;;;;;;4914695;29;20079;-85
2022/03/01 12:30:50;;;;;;;;;;;8.90;61.40;;;;;;4914225;29;20493;-84
2022/03/01 12:33:16;;;;;;;;;;;8.40;61.60;;;;;;4931171;29;20079;-85
2022/03/01 12:35:42;;;;;;;;;;;8.00;62.20;;;;;;4915188;29;20064;-85
2022/03/01 12:38:14;;;;;;;;;;;8.20;64.40;;;;;;4931398;29;20052;-84
2022/03/01 12:40:41;;;;;;;;;;;8.40;64.90;;;;;;4944889;29;20064;-85
2022/03/01 12:43:12;;;;;;;;;;;8.60;62.60;;;;;;4913522;29;20716;-84
2022/03/01 12:45:42;;;;;;;;;;;8.20;62.60;;;;;;4914577;29;20541;-82
2022/03/01 12:48:09;;;;;;;;;;;7.40;65.30;;;;;;4933119;29;20180;-84
2022/03/01 12:50:35;;;;;;;;;;;6.80;66.80;;;;;;4914355;29;20094;-83
2022/03/01 12:53:01;;;;;;;;;;;6.70;67.70;;;;;;4913327;29;20048;-83
2022/03/01 12:55:27;;;;;;;;;;;6.40;66.00;;;;;;4913435;29;20059;-83